Time;durP1;ratioP1;P1;durP2;ratioP2;P2;SDS_P1;SDS_P2;PMS_P1;PMS_P2;Temp;Humidity;BMP_temperature;BMP_pressure;BME280_temperature;BME280_humidity;BME280_pressure;Samples;Min_cycle;Max_cycle;Signal;HPM_P1;HPM_P2
2022/11/07 00:00:13;;;;;;;8.10;4.47;;;;;;;9.63;100.00;100603.16;5039947;28;20033;-75
2022/11/07 00:02:38;;;;;;;20.30;5.85;;;;;;;9.51;100.00;100605.66;5031175;28;20041;-74
2022/11/07 00:05:04;;;;;;;14.60;4.65;;;;;;;9.51;100.00;100602.13;5036788;28;20040;-75
2022/11/07 00:07:30;;;;;;;12.38;4.50;;;;;;;9.53;100.00;100601.06;5036490;28;20041;-75
2022/11/07 00:09:55;;;;;;;9.80;4.40;;;;;;;9.49;100.00;100601.38;5036385;28;20040;-74
2022/11/07 00:12:21;;;;;;;10.93;5.00;;;;;;;9.56;100.00;100614.19;5035372;28;20045;-75
2022/11/07 00:14:47;;;;;;;10.13;4.65;;;;;;;9.53;100.00;100609.06;5038156;28;20045;-74
2022/11/07 00:17:12;;;;;;;11.57;4.35;;;;;;;9.55;100.00;100601.00;5035397;28;20060;-75
2022/11/07 00:19:37;;;;;;;10.60;4.82;;;;;;;9.50;100.00;100616.41;5041290;28;20048;-75
2022/11/07 00:22:03;;;;;;;10.95;4.03;;;;;;;9.52;100.00;100617.16;5040468;28;20033;-75
2022/11/07 00:24:28;;;;;;;8.18;4.43;;;;;;;9.51;100.00;100613.63;5039364;28;20040;-74
2022/11/07 00:26:54;;;;;;;13.20;4.22;;;;;;;9.53;100.00;100610.88;5038163;28;20099;-75
2022/11/07 00:29:20;;;;;;;9.73;4.00;;;;;;;9.41;100.00;100612.50;5033284;28;20056;-75
2022/11/07 00:31:46;;;;;;;7.53;4.50;;;;;;;9.57;100.00;100604.41;5038003;28;20499;-75
2022/11/07 00:34:12;;;;;;;10.63;4.70;;;;;;;9.53;100.00;100614.38;5034757;28;20144;-74
2022/11/07 00:36:37;;;;;;;7.78;4.13;;;;;;;9.59;100.00;100616.69;5039389;28;20053;-75
2022/11/07 00:39:04;;;;;;;16.73;5.15;;;;;;;9.51;100.00;100623.44;5030007;28;20038;-75
2022/11/07 00:41:29;;;;;;;11.85;4.47;;;;;;;9.44;100.00;100622.97;5027657;28;20441;-74
2022/11/07 00:43:55;;;;;;;15.55;4.20;;;;;;;9.48;100.00;100618.28;5014894;28;20049;-75
2022/11/07 00:46:21;;;;;;;12.73;4.65;;;;;;;9.64;100.00;100616.38;5034507;28;20052;-75
2022/11/07 00:48:46;;;;;;;12.27;5.05;;;;;;;9.69;100.00;100608.97;5032779;28;20037;-74
2022/11/07 00:51:16;;;;;;;10.60;5.05;;;;;;;9.77;100.00;100622.63;5026198;28;20045;-75
2022/11/07 00:53:42;;;;;;;16.25;5.35;;;;;;;9.64;100.00;100623.50;5037058;28;20604;-75
2022/11/07 00:56:10;;;;;;;13.07;4.43;;;;;;;9.73;100.00;100630.91;5027601;28;20603;-75
2022/11/07 00:58:36;;;;;;;11.27;4.55;;;;;;;9.77;100.00;100629.75;5035216;28;20443;-75
2022/11/07 01:01:09;;;;;;;10.50;4.53;;;;;;;9.72;100.00;100626.53;5030714;28;20112;-74
2022/11/07 01:06:19;;;;;;;11.98;4.50;;;;;;;9.78;100.00;100636.78;5030062;28;20045;-74
2022/11/07 01:08:45;;;;;;;14.10;4.00;;;;;;;9.75;100.00;100635.19;5010151;28;20163;-75
2022/11/07 01:11:10;;;;;;;12.32;4.93;;;;;;;9.68;100.00;100643.66;5022446;28;20053;-74
2022/11/07 01:13:36;;;;;;;13.85;4.45;;;;;;;9.72;100.00;100639.84;5030250;28;20040;-74
2022/11/07 01:16:02;;;;;;;14.75;4.30;;;;;;;9.69;100.00;100646.25;5030495;28;20052;-74
2022/11/07 01:18:28;;;;;;;14.32;4.70;;;;;;;9.72;100.00;100654.00;5025900;28;20068;-74
2022/11/07 01:20:53;;;;;;;13.85;4.38;;;;;;;9.75;100.00;100655.66;5034358;28;20719;-74
2022/11/07 01:23:19;;;;;;;13.65;4.32;;;;;;;9.70;100.00;100650.59;5035551;28;20488;-74
2022/11/07 01:25:44;;;;;;;7.68;4.22;;;;;;;9.93;100.00;100659.78;5035797;28;20110;-75
2022/11/07 01:28:10;;;;;;;10.52;5.03;;;;;;;10.04;100.00;100659.09;5023460;28;20594;-76
2022/11/07 01:30:40;;;;;;;13.05;4.70;;;;;;;10.03;100.00;100658.25;5038501;28;20044;-74
2022/11/07 01:33:05;;;;;;;11.60;4.78;;;;;;;9.99;100.00;100658.53;5038795;28;20057;-74
2022/11/07 01:35:32;;;;;;;16.38;5.05;;;;;;;10.09;100.00;100671.19;5038865;28;20059;-75
2022/11/07 01:37:58;;;;;;;11.50;4.43;;;;;;;10.05;100.00;100666.16;5043899;28;20048;-74
2022/11/07 01:40:23;;;;;;;15.43;4.50;;;;;;;10.11;100.00;100663.94;5043822;28;20041;-74
2022/11/07 01:42:49;;;;;;;12.88;4.00;;;;;;;10.14;100.00;100657.59;5033678;28;20048;-74
2022/11/07 01:45:28;;;;;;;13.80;3.65;;;;;;;10.26;100.00;100655.97;5042338;28;20040;-75
2022/11/07 01:47:56;;;;;;;12.98;4.30;;;;;;;10.32;100.00;100671.53;5037391;28;20090;-75
2022/11/07 01:50:22;;;;;;;9.27;4.32;;;;;;;10.26;100.00;100666.63;5044061;28;20077;-75
2022/11/07 01:52:49;;;;;;;7.55;3.80;;;;;;;10.11;100.00;100669.28;5044388;28;20061;-74
2022/11/07 01:55:20;;;;;;;17.83;5.05;;;;;;;10.16;100.00;100670.81;5036928;28;20041;-74
2022/11/07 01:57:53;;;;;;;10.35;4.05;;;;;;;10.06;100.00;100671.38;5038013;28;20045;-74
2022/11/07 02:00:21;;;;;;;11.90;5.03;;;;;;;10.00;100.00;100669.13;5040251;28;20041;-75
2022/11/07 02:02:51;;;;;;;13.73;4.03;;;;;;;9.92;100.00;100668.75;5036263;28;20060;-75
2022/11/07 02:05:42;;;;;;;9.27;3.88;;;;;;;9.82;100.00;100670.28;5043611;28;20053;-74
2022/11/07 02:08:09;;;;;;;6.75;4.07;;;;;;;9.76;100.00;100666.19;5030853;28;20037;-74
2022/11/07 02:10:35;;;;;;;19.15;6.68;;;;;;;9.74;100.00;100661.91;5033725;28;20033;-75
2022/11/07 02:13:02;;;;;;;15.52;4.63;;;;;;;9.72;100.00;100674.47;5031221;28;20041;-74
2022/11/07 02:15:28;;;;;;;19.55;4.93;;;;;;;9.69;100.00;100669.31;5038861;28;20044;-74
2022/11/07 02:17:54;;;;;;;10.68;4.30;;;;;;;9.64;100.00;100671.41;5036115;28;20100;-74
2022/11/07 02:20:20;;;;;;;10.85;4.75;;;;;;;9.64;100.00;100672.31;5044573;28;20109;-75
2022/11/07 02:22:59;;;;;;;12.43;4.72;;;;;;;9.61;100.00;100677.81;5033692;28;20049;-74
2022/11/07 02:25:25;;;;;;;8.30;4.35;;;;;;;9.61;100.00;100672.47;5039020;28;20102;-75
2022/11/07 02:27:55;;;;;;;13.23;4.22;;;;;;;9.65;100.00;100678.47;5039349;28;20481;-74
2022/11/07 02:30:24;;;;;;;15.55;4.72;;;;;;;9.66;100.00;100669.53;5039208;28;20108;-75
2022/11/07 02:32:50;;;;;;;12.55;4.07;;;;;;;9.54;100.00;100668.50;5034120;28;20037;-74
2022/11/07 02:35:35;;;;;;;17.48;5.10;;;;;;;9.58;100.00;100670.00;5037810;28;20037;-75
2022/11/07 02:38:04;;;;;;;21.50;5.13;;;;;;;9.64;100.00;100658.09;5034501;28;20025;-75
2022/11/07 02:40:30;;;;;;;14.68;4.43;;;;;;;9.62;100.00;100665.34;5041372;28;20111;-74
2022/11/07 02:42:58;;;;;;;18.30;6.10;;;;;;;9.50;100.00;100669.63;5033792;28;20045;-75
2022/11/07 02:45:30;;;;;;;10.50;5.15;;;;;;;9.58;100.00;100660.19;5035349;28;20182;-75
2022/11/07 02:47:55;;;;;;;15.43;5.25;;;;;;;9.67;100.00;100674.75;5042076;28;20045;-74
2022/11/07 02:50:21;;;;;;;14.45;5.47;;;;;;;9.71;100.00;100676.28;5034578;28;20108;-74
2022/11/07 02:52:46;;;;;;;10.85;4.93;;;;;;;9.71;100.00;100662.97;5039690;28;20033;-75
2022/11/07 02:55:13;;;;;;;13.73;5.78;;;;;;;9.63;100.00;100675.03;5030948;28;20037;-74
2022/11/07 02:57:39;;;;;;;11.43;5.13;;;;;;;9.70;100.00;100674.56;5032419;28;20064;-74
2022/11/07 03:00:06;;;;;;;21.42;5.38;;;;;;;9.64;100.00;100672.31;5035167;28;20040;-75
2022/11/07 03:02:32;;;;;;;11.85;4.38;;;;;;;9.62;100.00;100673.31;5022214;28;20033;-75
2022/11/07 03:04:57;;;;;;;9.18;4.47;;;;;;;9.58;100.00;100678.84;5035672;28;20029;-74
2022/11/07 03:07:23;;;;;;;11.07;5.45;;;;;;;9.59;100.00;100677.91;5039258;28;20052;-75
2022/11/07 03:09:49;;;;;;;12.00;5.13;;;;;;;9.57;100.00;100677.13;5038295;28;20037;-74
2022/11/07 03:12:15;;;;;;;12.73;4.88;;;;;;;9.64;100.00;100671.41;5040380;28;20067;-75
2022/11/07 03:14:40;;;;;;;17.08;5.75;;;;;;;9.57;100.00;100679.78;5040164;28;20028;-75
2022/11/07 03:17:06;;;;;;;12.43;5.82;;;;;;;9.52;100.00;100678.38;5033428;28;20098;-74
2022/11/07 03:19:31;;;;;;;16.05;5.43;;;;;;;9.50;100.00;100675.81;5032502;28;20037;-74
2022/11/07 03:21:57;;;;;;;10.40;5.38;;;;;;;9.55;100.00;100671.06;5005628;28;20388;-74
2022/11/07 03:24:22;;;;;;;9.98;4.90;;;;;;;9.54;100.00;100673.81;5035312;28;20520;-75
2022/11/07 03:26:47;;;;;;;9.93;6.65;;;;;;;9.62;100.00;100683.97;5035857;28;20938;-74
2022/11/07 03:29:13;;;;;;;10.15;5.10;;;;;;;9.64;100.00;100671.41;5035096;28;20033;-75
2022/11/07 03:31:38;;;;;;;21.92;6.25;;;;;;;9.54;100.00;100680.00;5029914;28;20045;-74
2022/11/07 03:34:04;;;;;;;15.90;5.68;;;;;;;9.60;100.00;100687.59;5034671;28;20115;-75
2022/11/07 03:36:29;;;;;;;17.33;5.43;;;;;;;9.69;100.00;100679.97;5032763;28;20057;-75
2022/11/07 03:38:55;;;;;;;16.98;5.50;;;;;;;9.69;100.00;100683.53;5035081;28;20056;-75
2022/11/07 03:41:20;;;;;;;19.77;5.93;;;;;;;9.66;100.00;100680.19;5009325;28;20050;-75
2022/11/07 03:43:46;;;;;;;22.60;5.65;;;;;;;9.74;100.00;100686.75;5038308;28;20036;-74
2022/11/07 03:46:12;;;;;;;18.17;6.13;;;;;;;9.84;100.00;100687.03;5035400;28;20067;-73
2022/11/07 03:48:38;;;;;;;14.65;5.60;;;;;;;9.88;100.00;100691.19;5033773;28;20187;-74
2022/11/07 03:51:04;;;;;;;24.58;6.22;;;;;;;9.75;100.00;100696.44;5031268;28;20072;-74
2022/11/07 03:53:29;;;;;;;20.75;5.32;;;;;;;9.78;100.00;100698.91;5040884;28;20469;-74
2022/11/07 03:55:55;;;;;;;14.77;5.50;;;;;;;9.83;100.00;100698.59;5031040;28;20075;-74
2022/11/07 03:58:21;;;;;;;14.30;6.07;;;;;;;9.79;100.00;100697.13;5040836;28;20040;-74
2022/11/07 04:00:46;;;;;;;16.15;5.68;;;;;;;9.79;100.00;100700.63;5040614;28;20033;-74
2022/11/07 04:03:12;;;;;;;12.63;5.30;;;;;;;9.80;100.00;100701.47;5036187;28;20028;-74
2022/11/07 04:05:38;;;;;;;14.13;4.78;;;;;;;9.82;100.00;100705.75;5037504;28;20876;-74
2022/11/07 04:08:03;;;;;;;12.18;4.47;;;;;;;9.88;100.00;100704.50;5041136;28;20033;-74
2022/11/07 04:10:29;;;;;;;14.70;4.53;;;;;;;9.94;100.00;100706.81;5028301;28;20584;-74
2022/11/07 04:18:24;;;;;;;15.68;5.10;;;;;;;9.77;100.00;100709.66;5032074;28;20037;-74
2022/11/07 04:20:49;;;;;;;20.05;6.03;;;;;;;9.74;100.00;100699.19;5033174;28;20052;-75
2022/11/07 04:23:14;;;;;;;15.18;5.05;;;;;;;9.77;100.00;100714.97;5036904;28;20044;-74
2022/11/07 04:28:24;;;;;;;22.15;6.75;;;;;;;9.67;100.00;100719.16;5036993;28;20037;-75
2022/11/07 04:30:49;;;;;;;14.75;5.38;;;;;;;9.64;100.00;100712.22;5035136;28;20994;-73
2022/11/07 04:33:15;;;;;;;13.35;4.85;;;;;;;9.65;100.00;100716.59;5029763;28;20132;-76
2022/11/07 04:35:40;;;;;;;25.55;5.47;;;;;;;9.56;100.00;100715.34;5039767;28;20530;-74
2022/11/07 04:38:05;;;;;;;33.47;5.75;;;;;;;9.59;100.00;100716.97;5035117;28;21027;-73
2022/11/07 04:40:31;;;;;;;19.60;4.75;;;;;;;9.53;100.00;100717.34;5031702;28;20098;-74
2022/11/07 04:42:56;;;;;;;14.63;5.43;;;;;;;9.57;100.00;100708.22;5032385;28;20603;-74
2022/11/07 04:45:22;;;;;;;19.55;5.05;;;;;;;9.55;100.00;100710.97;5036302;28;20041;-74
2022/11/07 04:47:48;;;;;;;17.67;5.68;;;;;;;9.52;100.00;100704.97;5039223;28;20045;-74
2022/11/07 04:50:15;;;;;;;17.88;4.72;;;;;;;9.54;100.00;100706.63;5028382;28;20439;-75
2022/11/07 04:52:41;;;;;;;14.65;4.45;;;;;;;9.55;100.00;100705.66;5030724;28;20060;-74
2022/11/07 04:55:08;;;;;;;13.63;4.45;;;;;;;9.62;100.00;100714.13;5037140;28;20033;-73
2022/11/07 04:57:34;;;;;;;11.27;5.28;;;;;;;9.66;100.00;100714.78;5037563;28;20037;-74
2022/11/07 05:00:01;;;;;;;19.13;4.20;;;;;;;9.80;100.00;100709.47;5035556;28;20838;-74
2022/11/07 05:02:26;;;;;;;14.63;4.72;;;;;;;9.80;100.00;100709.47;5036296;28;20037;-74
2022/11/07 05:04:52;;;;;;;17.05;5.32;;;;;;;9.80;100.00;100709.47;5036175;28;20029;-73
2022/11/07 05:07:18;;;;;;;13.73;4.72;;;;;;;9.87;100.00;100718.78;5037016;28;20037;-74
2022/11/07 05:09:43;;;;;;;14.80;4.03;;;;;;;9.90;100.00;100710.59;5035751;28;20038;-74
2022/11/07 05:12:09;;;;;;;19.15;5.22;;;;;;;9.96;100.00;100710.22;5038392;28;20033;-73
2022/11/07 05:14:34;;;;;;;17.38;4.30;;;;;;;9.99;100.00;100709.16;5039845;28;20831;-74
2022/11/07 05:17:01;;;;;;;12.48;4.25;;;;;;;10.07;100.00;100715.72;5038489;28;20033;-74
2022/11/07 05:19:26;;;;;;;14.07;4.07;;;;;;;10.11;100.00;100709.25;5028259;28;20418;-74
2022/11/07 05:23:11;;;;;;;19.25;5.68;;;;;;;10.12;100.00;100708.28;5028160;28;20052;-74
2022/11/07 05:24:37;;;;;;;12.73;5.65;;;;;;;10.15;100.00;100717.06;5035807;28;20560;-73
2022/11/07 05:27:03;;;;;;;20.60;4.68;;;;;;;10.17;100.00;100709.81;5026050;28;20084;-74
2022/11/07 05:29:29;;;;;;;19.75;3.90;;;;;;;10.24;100.00;100706.69;5039638;28;20047;-74
2022/11/07 05:31:54;;;;;;;13.48;3.85;;;;;;;10.25;100.00;100716.41;5035134;28;20510;-74
2022/11/07 05:34:19;;;;;;;20.20;4.30;;;;;;;10.31;100.00;100709.81;5033936;28;20489;-74
2022/11/07 05:36:45;;;;;;;15.90;4.93;;;;;;;10.29;100.00;100711.69;5038098;28;20072;-74
2022/11/07 05:39:10;;;;;;;14.50;4.63;;;;;;;10.27;100.00;100698.50;5034993;28;20122;-73
2022/11/07 05:41:36;;;;;;;14.88;3.53;;;;;;;10.29;100.00;100711.69;5040377;28;20041;-73
2022/11/07 05:44:01;;;;;;;16.58;3.83;;;;;;;10.25;100.00;100707.56;5028182;28;20029;-74
2022/11/07 05:46:26;;;;;;;15.73;3.88;;;;;;;10.27;100.00;100716.28;5037358;28;20040;-73
2022/11/07 05:48:52;;;;;;;15.57;4.57;;;;;;;10.28;100.00;100718.00;5037515;28;20036;-74
2022/11/07 05:51:17;;;;;;;22.13;3.78;;;;;;;10.34;100.00;100713.16;5032654;28;20033;-74
2022/11/07 05:53:43;;;;;;;15.77;3.35;;;;;;;10.35;100.00;100719.34;5030478;28;20422;-74
2022/11/07 05:56:08;;;;;;;18.70;3.60;;;;;;;10.36;100.00;100716.56;5030688;28;21695;-74
2022/11/07 05:58:34;;;;;;;11.52;3.72;;;;;;;10.29;100.00;100728.56;5033769;28;20041;-74
2022/11/07 06:01:04;;;;;;;15.02;3.80;;;;;;;10.22;100.00;100734.34;5031911;28;20482;-74
2022/11/07 06:03:31;;;;;;;15.20;3.92;;;;;;;10.26;100.00;100725.25;5036582;28;20876;-74
2022/11/07 06:05:57;;;;;;;15.88;4.03;;;;;;;10.23;100.00;100725.41;5039650;28;20029;-74
2022/11/07 06:08:22;;;;;;;18.15;3.55;;;;;;;10.26;100.00;100720.78;5040904;28;20091;-74
2022/11/07 06:10:48;;;;;;;14.57;4.20;;;;;;;10.25;100.00;100727.06;5035659;28;20065;-74
2022/11/07 06:13:15;;;;;;;13.02;3.55;;;;;;;10.24;100.00;100713.81;5030494;28;20045;-74
2022/11/07 06:15:42;;;;;;;23.27;4.32;;;;;;;10.23;100.00;100728.06;5037973;28;20119;-74
2022/11/07 06:18:13;;;;;;;17.52;4.13;;;;;;;10.26;100.00;100720.78;5029972;28;20033;-74
2022/11/07 06:20:39;;;;;;;20.25;4.68;;;;;;;10.19;100.00;100721.22;5040197;28;20107;-74
2022/11/07 06:23:05;;;;;;;17.55;5.13;;;;;;;10.26;100.00;100715.44;5042411;28;20140;-74
2022/11/07 06:25:31;;;;;;;16.65;4.00;;;;;;;10.28;100.00;100732.16;5040370;28;20551;-74
2022/11/07 06:28:01;;;;;;;13.95;4.32;;;;;;;10.34;100.00;100725.59;5038922;28;20029;-74
2022/11/07 06:30:27;;;;;;;10.25;3.60;;;;;;;10.29;100.00;100725.03;5026404;28;20791;-73
2022/11/07 06:32:53;;;;;;;11.73;3.75;;;;;;;10.30;100.00;100724.97;5039748;28;20052;-74
2022/11/07 06:35:18;;;;;;;13.88;4.75;;;;;;;10.27;100.00;100735.81;5043225;28;20037;-74
2022/11/07 06:37:44;;;;;;;19.23;4.03;;;;;;;10.28;100.00;100723.31;5040359;28;20047;-74
2022/11/07 06:40:10;;;;;;;15.48;3.70;;;;;;;10.28;100.00;100734.84;5034184;28;20040;-74
2022/11/07 06:42:36;;;;;;;15.88;3.92;;;;;;;10.37;100.00;100736.91;5039997;28;20044;-74
2022/11/07 06:45:01;;;;;;;15.30;3.47;;;;;;;10.38;100.00;100735.97;5040344;28;20060;-75
2022/11/07 06:47:27;;;;;;;15.60;4.28;;;;;;;10.41;100.00;100747.41;5038227;28;20044;-75
2022/11/07 06:49:52;;;;;;;16.33;4.13;;;;;;;10.42;100.00;100739.28;5040816;28;20974;-75
2022/11/07 06:52:17;;;;;;;24.48;3.78;;;;;;;10.41;100.00;100739.41;5026708;28;20045;-74
2022/11/07 06:54:43;;;;;;;12.52;4.68;;;;;;;10.41;100.00;100750.91;5038022;28;20045;-74
2022/11/07 06:57:09;;;;;;;19.40;4.07;;;;;;;10.45;100.00;100747.09;5029165;28;20078;-74
2022/11/07 06:59:34;;;;;;;14.75;4.00;;;;;;;10.43;100.00;100753.47;5038566;28;20032;-74
2022/11/07 07:02:00;;;;;;;23.15;3.67;;;;;;;10.51;100.00;100749.38;5040194;28;20465;-74
2022/11/07 07:04:26;;;;;;;21.95;4.50;;;;;;;10.51;100.00;100759.19;5039556;28;20103;-74
2022/11/07 07:06:51;;;;;;;27.80;3.63;;;;;;;10.48;100.00;100772.69;5037107;28;20045;-75
2022/11/07 07:09:17;;;;;;;18.23;4.47;;;;;;;10.50;100.00;100763.66;5035306;28;20041;-74
2022/11/07 07:11:43;;;;;;;18.98;4.13;;;;;;;10.54;100.00;100765.19;5039320;28;20045;-75
2022/11/07 07:14:09;;;;;;;25.52;3.85;;;;;;;10.55;100.00;100774.88;5040417;28;20045;-75
2022/11/07 07:16:35;;;;;;;24.20;4.20;;;;;;;10.57;100.00;100767.63;5038661;28;20115;-75
2022/11/07 07:19:00;;;;;;;12.65;3.97;;;;;;;10.60;100.00;100770.09;5032845;28;20056;-75
2022/11/07 07:21:26;;;;;;;14.30;3.28;;;;;;;10.62;100.00;100775.34;5036161;28;20048;-74
2022/11/07 07:23:51;;;;;;;18.08;3.47;;;;;;;10.68;100.00;100774.94;5041753;28;20047;-74
2022/11/07 07:26:17;;;;;;;29.23;3.75;;;;;;;10.71;100.00;100774.75;5017047;28;20040;-75
2022/11/07 07:28:43;;;;;;;19.50;4.75;;;;;;;10.76;100.00;100775.31;5034204;28;20119;-75
2022/11/07 07:31:14;;;;;;;13.80;3.95;;;;;;;10.80;100.00;100776.81;5022404;28;20053;-74
2022/11/07 07:33:45;;;;;;;15.93;3.40;;;;;;;10.90;100.00;100774.41;5036797;28;20180;-74
2022/11/07 07:36:11;;;;;;;9.82;3.08;;;;;;;10.97;100.00;100785.50;5030797;28;20072;-75
2022/11/07 07:38:37;;;;;;;17.23;3.58;;;;;;;10.99;100.00;100780.91;5034940;28;20886;-75
2022/11/07 07:41:04;;;;;;;21.67;4.30;;;;;;;11.07;100.00;100795.47;5033985;28;20033;-75
2022/11/07 07:43:29;;;;;;;30.73;4.47;;;;;;;11.10;100.00;100797.09;5034307;28;20565;-75
2022/11/07 07:45:59;;;;;;;14.88;4.47;;;;;;;11.15;100.00;100795.84;5019372;28;20052;-75
2022/11/07 07:48:25;;;;;;;16.13;3.00;;;;;;;11.23;100.00;100791.78;5032371;28;20044;-75
2022/11/07 07:50:51;;;;;;;12.45;3.17;;;;;;;11.19;100.00;100792.94;5036290;28;20037;-74
2022/11/07 07:53:17;;;;;;;15.30;3.70;;;;;;;11.25;100.00;100790.75;5036036;28;20057;-74
2022/11/07 07:55:42;;;;;;;18.65;4.00;;;;;;;11.31;100.00;100795.66;5030774;28;20037;-74
2022/11/07 07:58:09;;;;;;;14.70;3.05;;;;;;;11.42;100.00;100797.59;5035208;28;20037;-74
2022/11/07 08:00:35;;;;;;;20.73;4.03;;;;;;;11.48;100.00;100794.50;5036937;28;20099;-74
2022/11/07 08:03:06;;;;;;;19.50;3.38;;;;;;;11.47;100.00;100791.97;5034529;28;20043;-75
2022/11/07 08:05:32;;;;;;;16.23;3.40;;;;;;;11.58;100.00;100803.59;5035560;28;20037;-75
2022/11/07 08:07:57;;;;;;;10.57;2.55;;;;;;;11.60;100.00;100803.53;5039310;28;20037;-75
2022/11/07 08:10:23;;;;;;;17.08;3.88;;;;;;;11.63;100.00;100809.50;5033749;28;20094;-75
2022/11/07 08:12:50;;;;;;;9.20;3.42;;;;;;;11.75;100.00;100804.28;5039767;28;20048;-75
2022/11/07 08:15:18;;;;;;;14.85;2.95;;;;;;;11.88;100.00;100799.81;5040713;28;20045;-75
2022/11/07 08:17:43;;;;;;;17.20;2.88;;;;;;;11.99;100.00;100817.78;5039301;28;20124;-75
2022/11/07 08:20:12;;;;;;;14.85;3.15;;;;;;;12.04;100.00;100811.13;5040161;28;20444;-75
2022/11/07 08:22:38;;;;;;;19.67;3.00;;;;;;;12.10;100.00;100810.75;5024777;28;20202;-75
2022/11/07 08:25:05;;;;;;;12.18;3.30;;;;;;;12.24;100.00;100814.25;5040470;28;20032;-75
2022/11/07 08:27:31;;;;;;;16.20;3.88;;;;;;;12.33;100.00;100810.91;5035910;28;20041;-74
2022/11/07 08:29:56;;;;;;;16.77;3.13;;;;;;;12.37;100.00;100817.75;5031610;28;20068;-74
2022/11/07 08:32:23;;;;;;;19.63;3.25;;;;;;;12.44;100.00;100813.66;5035058;28;20041;-75
2022/11/07 08:34:49;;;;;;;19.23;3.28;;;;;;;12.32;100.00;100825.25;5032421;28;20847;-75
2022/11/07 08:37:14;;;;;;;14.20;2.83;;;;;;;12.33;100.00;100819.78;5039697;28;20032;-75
2022/11/07 08:39:39;;;;;;;12.05;3.22;;;;;;;12.39;100.00;100813.16;5033699;28;20041;-74
2022/11/07 08:42:05;;;;;;;22.42;3.53;;;;;;;12.55;100.00;100816.44;5025472;28;20045;-74
2022/11/07 08:44:33;;;;;;;17.63;3.13;;;;;;;12.56;100.00;100818.16;5034457;28;20037;-75
2022/11/07 08:46:59;;;;;;;8.77;3.60;;;;;;;12.59;100.00;100817.91;5026398;28;20044;-75
2022/11/07 08:49:25;;;;;;;13.15;2.53;;;;;;;12.61;100.00;100815.16;5036075;28;20045;-75
2022/11/07 08:51:50;;;;;;;7.00;2.20;;;;;;;12.52;100.00;100829.19;5031194;28;20037;-75
2022/11/07 08:54:16;;;;;;;15.35;3.33;;;;;;;12.53;100.00;100837.09;5034318;28;20436;-75
2022/11/07 08:56:41;;;;;;;16.45;3.80;;;;;;;12.49;100.00;100840.09;5032003;28;20033;-75
2022/11/07 08:59:08;;;;;;;14.63;4.60;;;;;;;12.45;100.00;100844.81;5028785;28;20038;-75
2022/11/07 09:01:34;;;;;;;15.93;4.30;;;;;;;12.46;100.00;100845.69;5025287;28;20060;-74
2022/11/07 09:03:59;;;;;;;8.52;2.88;;;;;;;12.43;100.00;100857.44;5033116;28;20040;-75
2022/11/07 09:06:25;;;;;;;15.68;2.83;;;;;;;12.50;100.00;100865.88;5039347;28;20049;-75
2022/11/07 09:08:50;;;;;;;16.30;2.78;;;;;;;12.52;100.00;100861.28;5037310;28;20038;-75
2022/11/07 09:11:17;;;;;;;12.40;3.15;;;;;;;12.67;100.00;100863.72;5031478;28;20067;-75
2022/11/07 09:13:45;;;;;;;12.00;3.88;;;;;;;12.80;100.00;100869.06;5034018;28;20029;-75
2022/11/07 09:16:11;;;;;;;12.15;3.15;;;;;;;12.89;100.00;100860.31;5033479;28;20165;-76
2022/11/07 09:18:36;;;;;;;10.30;2.85;;;;;;;12.91;100.00;100866.44;5039358;28;20862;-75
2022/11/07 09:21:02;;;;;;;18.92;3.47;;;;;;;12.96;100.00;100866.09;5037761;28;20047;-75
2022/11/07 09:23:28;;;;;;;18.90;3.00;;;;;;;12.99;100.00;100871.22;5034642;28;20580;-74
2022/11/07 09:25:54;;;;;;;11.45;2.53;;;;;;;13.06;100.00;100875.19;5036218;28;20017;-74
2022/11/07 09:28:19;;;;;;;17.50;3.42;;;;;;;13.07;100.00;100874.19;5038581;28;20472;-75
2022/11/07 09:30:44;;;;;;;17.48;3.88;;;;;;;13.15;100.00;100861.13;5039605;28;20036;-76
2022/11/07 09:33:10;;;;;;;12.55;2.83;;;;;;;13.24;100.00;100872.13;5032332;28;20049;-74
2022/11/07 09:35:35;;;;;;;10.48;2.95;;;;;;;13.28;100.00;100873.63;5035932;28;20034;-75
2022/11/07 09:38:01;;;;;;;14.23;2.97;;;;;;;13.32;100.00;100877.78;5033895;28;20488;-75
2022/11/07 09:40:45;;;;;;;10.93;2.85;;;;;;;13.29;100.00;100880.69;5036863;28;20044;-75
2022/11/07 09:43:22;;;;;;;12.25;2.65;;;;;;;13.21;100.00;100887.47;5032958;28;20060;-75
2022/11/07 09:46:03;;;;;;;17.88;2.95;;;;;;;13.24;100.00;100883.69;5028101;28;20034;-74
2022/11/07 09:48:37;;;;;;;13.23;3.75;;;;;;;13.21;100.00;100889.25;5034112;28;20063;-74
2022/11/07 09:51:03;;;;;;;16.60;2.75;;;;;;;13.23;100.00;100898.06;5038416;28;20033;-75
2022/11/07 09:53:38;;;;;;;14.77;3.20;;;;;;;13.24;100.00;100899.75;5023606;28;20564;-75
2022/11/07 09:56:06;;;;;;;12.70;3.08;;;;;;;13.44;100.00;100896.47;5041616;28;20094;-75
2022/11/07 09:58:34;;;;;;;13.90;2.67;;;;;;;13.53;100.00;100889.56;5030647;28;20071;-75
2022/11/07 10:01:04;;;;;;;18.15;3.13;;;;;;;13.55;100.00;100887.63;5034167;28;20040;-75
2022/11/07 10:03:32;;;;;;;14.02;2.47;;;;;;;13.64;100.00;100897.66;5032719;28;20041;-75
2022/11/07 10:06:14;;;;;;;8.98;2.50;;;;;;;13.73;100.00;100906.81;5034538;28;20048;-75
2022/11/07 10:08:43;;;;;;;;;;;;;;;13.67;100.00;100901.94;5035539;28;20046;-75
2022/11/07 10:11:35;;;;;;;17.45;3.08;;;;;;;13.68;100.00;100896.44;5036577;28;19924;-75
2022/11/07 10:14:32;;;;;;;10.52;2.42;;;;;;;13.80;100.00;100896.47;5039640;28;20076;-75
2022/11/07 10:17:23;;;;;;;13.18;4.68;;;;;;;13.94;100.00;100885.56;5033002;28;20030;-75
2022/11/07 10:20:07;;;;;;;12.13;2.60;;;;;;;14.14;100.00;100895.59;5039527;28;20040;-75
2022/11/07 10:22:41;;;;;;;23.60;3.13;;;;;;;13.85;100.00;100897.84;5037425;28;20433;-74
2022/11/07 10:25:20;;;;;;;15.30;3.47;;;;;;;13.99;100.00;100891.44;5036483;28;20065;-75
2022/11/07 10:28:17;;;;;;;11.25;2.80;;;;;;;14.02;100.00;100895.72;5034362;28;20515;-75
2022/11/07 10:30:47;;;;;;;9.23;2.55;;;;;;;13.89;100.00;100895.78;5041778;28;20136;-75
2022/11/07 10:33:41;;;;;;;12.85;3.40;;;;;;;13.93;100.00;100894.59;5035231;28;20048;-75
2022/11/07 10:36:22;;;;;;;14.48;3.20;;;;;;;13.95;100.00;100901.53;5031727;28;20096;-75
2022/11/07 10:38:48;;;;;;;11.43;3.20;;;;;;;13.90;100.00;100909.06;5038965;28;20476;-75
2022/11/07 10:41:23;;;;;;;10.73;3.50;;;;;;;13.76;100.00;100916.47;5039632;28;20040;-74
2022/11/07 10:43:57;;;;;;;11.77;4.30;;;;;;;13.76;100.00;100929.88;5031403;28;20045;-75
2022/11/07 10:46:37;;;;;;;17.60;3.40;;;;;;;13.92;100.00;100925.06;5038964;28;20041;-75
2022/11/07 10:49:11;;;;;;;13.73;3.28;;;;;;;14.06;100.00;100919.50;5036979;28;20040;-75
2022/11/07 10:51:41;;;;;;;13.80;2.90;;;;;;;14.02;100.00;100915.34;5028431;28;20041;-75
2022/11/07 10:54:25;;;;;;;8.25;3.28;;;;;;;14.06;100.00;100922.19;5032210;28;20051;-75
2022/11/07 10:57:00;;;;;;;15.55;3.47;;;;;;;13.96;100.00;100915.81;5041918;28;20861;-75
2022/11/07 10:59:27;;;;;;;15.02;3.53;;;;;;;14.06;100.00;100916.81;5011957;28;20048;-75
2022/11/07 11:01:56;;;;;;;9.57;3.13;;;;;;;13.88;100.00;100911.03;5035406;28;20048;-75
2022/11/07 11:04:27;;;;;;;19.95;5.00;;;;;;;13.87;100.00;100914.69;5040490;28;20497;-75
2022/11/07 11:07:12;;;;;;;12.75;3.70;;;;;;;13.77;100.00;100915.50;5039886;28;20036;-75
2022/11/07 11:09:47;;;;;;;14.05;3.08;;;;;;;13.74;100.00;100917.41;5040336;28;20820;-74
2022/11/07 11:12:13;;;;;;;20.90;3.65;;;;;;;13.74;100.00;100906.69;5040641;28;20810;-74
2022/11/07 11:14:39;;;;;;;8.82;2.70;;;;;;;13.80;100.00;100918.78;5036550;28;20041;-74
2022/11/07 11:17:24;;;;;;;18.67;3.97;;;;;;;13.81;100.00;100919.66;5036457;28;20132;-75
2022/11/07 11:19:52;;;;;;;17.73;4.30;;;;;;;13.78;100.00;100907.31;5025847;28;20042;-75
2022/11/07 11:22:20;;;;;;;14.77;3.35;;;;;;;13.77;100.00;100910.13;5025797;28;20796;-75
2022/11/07 11:25:01;;;;;;;15.48;3.08;;;;;;;13.82;100.00;100902.59;5037905;28;20037;-75
2022/11/07 11:27:31;;;;;;;13.50;2.95;;;;;;;13.89;100.00;100903.84;5030281;28;20052;-75